Airport View

Enter AWOS ICAO identifier for current METAR.

ex. KFNL

KSLC 191754Z 31007KT 10SM FEW090 FEW200 SCT250 26/07 A3000 RMK AO2 SLP105 T02610072 10272 20172 58007

19 Jun 2019 19:00

Phone: 801-328-3567

Other Area AWOS: KU42 - KHIF - KTVY - KOGD

TAF KSLC 191720Z 1918/2024 31008KT P6SM SCT200 FM192000 34012G18KT P6SM FEW090 SCT200 FM200000 34009KT P6SM SCT200 FM200900 15006KT P6SM SCT200 FM201600 33008KT P6SM SCT090 BKN150